createdAt,value
2019-04-20T00:00:51.526Z,16.07
2019-04-20T00:03:18.060Z,15.87
2019-04-20T00:05:46.642Z,15.97
2019-04-20T00:08:21.726Z,15.86
2019-04-20T00:10:55.136Z,15.87
2019-04-20T00:13:24.523Z,16.08
2019-04-20T00:15:47.118Z,15.65
2019-04-20T00:18:16.888Z,15.67
2019-04-20T00:20:57.552Z,15.87
2019-04-20T00:23:35.429Z,15.82
2019-04-20T00:26:27.406Z,15.99
2019-04-20T00:29:06.998Z,15.69
2019-04-20T00:31:35.319Z,15.69
2019-04-20T00:33:59.461Z,15.47
2019-04-20T00:36:20.173Z,15.67
2019-04-20T00:38:54.713Z,15.69
2019-04-20T00:41:20.730Z,16.08
2019-04-20T00:43:49.211Z,15.71
2019-04-20T00:46:27.859Z,15.69
2019-04-20T00:48:55.836Z,15.66
2019-04-20T00:51:35.236Z,15.83
2019-04-20T00:53:51.768Z,15.63
2019-04-20T00:56:18.348Z,15.74
2019-04-20T00:58:58.145Z,15.52
2019-04-20T01:01:35.938Z,15.40
2019-04-20T01:04:06.763Z,15.56
2019-04-20T01:06:46.744Z,15.56
2019-04-20T01:09:03.412Z,15.43
2019-04-20T01:11:38.403Z,15.64
2019-04-20T01:14:06.022Z,15.45
2019-04-20T01:16:41.744Z,15.42
2019-04-20T01:19:02.441Z,15.29
2019-04-20T01:21:33.420Z,15.38
2019-04-20T01:24:03.572Z,15.29
2019-04-20T01:26:31.397Z,15.22
2019-04-20T01:29:15.885Z,15.14
2019-04-20T01:31:38.322Z,14.97
2019-04-20T01:34:08.261Z,15.05
2019-04-20T01:36:46.151Z,15.05
2019-04-20T01:39:16.338Z,15.25
2019-04-20T01:41:30.882Z,15.40
2019-04-20T01:44:00.406Z,15.41
2019-04-20T01:46:30.476Z,14.85
2019-04-20T01:49:06.843Z,15.40
2019-04-20T01:51:37.343Z,15.34
2019-04-20T01:54:15.893Z,15.17
2019-04-20T01:56:43.702Z,15.45
2019-04-20T01:59:29.421Z,15.21
2019-04-20T02:02:06.941Z,15.29
2019-04-20T02:04:40.985Z,15.28
2019-04-20T02:07:08.670Z,15.26
2019-04-20T02:09:43.315Z,15.14
2019-04-20T02:12:13.512Z,15.09
2019-04-20T02:14:45.412Z,15.13
2019-04-20T02:17:16.752Z,15.35
2019-04-20T02:19:59.822Z,15.27
2019-04-20T02:22:22.950Z,14.99
2019-04-20T02:24:38.818Z,14.99
2019-04-20T02:27:08.168Z,15.06
2019-04-20T02:29:58.519Z,14.88
2019-04-20T02:35:07.177Z,14.75
2019-04-20T02:40:19.173Z,15.09
2019-04-20T02:42:51.507Z,15.14
2019-04-20T02:45:17.417Z,15.27
2019-04-20T02:47:47.323Z,14.89
2019-04-20T02:50:15.167Z,14.70
2019-04-20T02:57:47.753Z,14.85
2019-04-20T03:02:27.272Z,14.85
2019-04-20T03:04:48.032Z,14.68
2019-04-20T03:07:27.654Z,14.53
2019-04-20T03:10:00.823Z,14.62
2019-04-20T03:14:58.573Z,14.68
2019-04-20T03:17:32.877Z,14.70
2019-04-20T03:19:57.249Z,14.94
2019-04-20T03:22:58.417Z,14.75
2019-04-20T03:25:07.890Z,14.95
2019-04-20T03:27:34.361Z,14.85
2019-04-20T03:30:21.962Z,14.57
2019-04-20T03:35:20.970Z,14.77
2019-04-20T03:37:42.773Z,14.46
2019-04-20T03:40:11.250Z,14.48
2019-04-20T03:42:24.346Z,14.34
2019-04-20T03:45:00.478Z,14.43
2019-04-20T03:47:33.755Z,14.26
2019-04-20T03:50:20.184Z,14.21
2019-04-20T03:52:43.677Z,14.15
2019-04-20T03:55:19.931Z,14.16
2019-04-20T03:57:57.358Z,14.26
2019-04-20T04:00:42.998Z,14.24
2019-04-20T04:03:29.444Z,14.11
2019-04-20T04:05:46.956Z,14.57
2019-04-20T04:08:17.046Z,14.57
2019-04-20T04:10:54.788Z,14.38
2019-04-20T04:13:14.901Z,14.36
2019-04-20T04:15:53.252Z,14.35
2019-04-20T04:18:25.388Z,14.52
2019-04-20T04:20:54.034Z,14.42
2019-04-20T04:23:35.598Z,14.39
2019-04-20T04:28:37.128Z,14.42
2019-04-20T04:31:08.195Z,14.47
2019-04-20T04:36:05.851Z,14.51
2019-04-20T04:38:41.916Z,14.59
2019-04-20T04:41:17.094Z,14.51
2019-04-20T04:43:37.263Z,14.58
2019-04-20T04:45:51.211Z,14.48
2019-04-20T04:48:27.575Z,14.51
2019-04-20T04:50:57.329Z,14.89
2019-04-20T04:53:30.377Z,14.97
2019-04-20T04:55:56.317Z,15.20
2019-04-20T04:58:21.595Z,15.17
2019-04-20T05:00:51.345Z,15.11
2019-04-20T05:03:38.651Z,15.55
2019-04-20T05:06:14.763Z,15.72
2019-04-20T05:08:31.666Z,15.62
2019-04-20T05:10:54.127Z,15.86
2019-04-20T05:13:27.680Z,16.37
2019-04-20T05:16:09.795Z,16.63
2019-04-20T05:18:45.155Z,16.51
2019-04-20T05:21:15.338Z,16.65
2019-04-20T05:23:37.810Z,16.68
2019-04-20T05:26:20.019Z,16.92
2019-04-20T05:28:46.110Z,17.10
2019-04-20T05:31:09.389Z,17.26
2019-04-20T05:34:02.310Z,17.42
2019-04-20T05:36:25.626Z,17.73
2019-04-20T05:39:02.257Z,17.97
2019-04-20T05:41:24.107Z,18.38
2019-04-20T05:43:56.513Z,17.65
2019-04-20T05:46:42.383Z,17.50
2019-04-20T05:49:02.607Z,17.52
2019-04-20T05:51:38.307Z,17.62
2019-04-20T05:54:04.459Z,17.54
2019-04-20T05:56:37.293Z,17.59
2019-04-20T05:58:59.655Z,17.54
2019-04-20T06:01:34.497Z,17.86
2019-04-20T06:03:59.332Z,17.34
2019-04-20T06:06:34.640Z,17.51
2019-04-20T06:09:06.849Z,17.86
2019-04-20T06:11:38.439Z,17.82
2019-04-20T06:13:50.709Z,18.12
2019-04-20T06:16:40.380Z,17.75
2019-04-20T06:19:18.774Z,17.96
2019-04-20T06:21:36.789Z,17.90
2019-04-20T06:24:10.602Z,18.04
2019-04-20T06:26:51.970Z,18.64
2019-04-20T06:29:07.236Z,18.30
2019-04-20T06:31:40.681Z,18.95
2019-04-20T06:34:32.801Z,18.95
2019-04-20T06:37:07.150Z,19.97
2019-04-20T06:39:34.850Z,19.63
2019-04-20T06:42:14.039Z,19.37
2019-04-20T06:44:31.993Z,19.75
2019-04-20T06:47:16.245Z,19.97
2019-04-20T06:49:34.515Z,19.86
2019-04-20T06:52:10.139Z,19.39
2019-04-20T06:54:33.873Z,19.41
2019-04-20T06:57:07.226Z,19.15
2019-04-20T06:59:42.959Z,19.59
2019-04-20T07:07:11.583Z,19.89
2019-04-20T07:09:47.408Z,19.54
2019-04-20T07:12:02.698Z,19.84
2019-04-20T07:14:28.832Z,20.20
2019-04-20T07:17:30.849Z,20.38
2019-04-20T07:19:45.367Z,20.35
2019-04-20T07:25:01.303Z,20.52
2019-04-20T07:27:19.912Z,20.45
2019-04-20T07:29:52.023Z,20.21
2019-04-20T07:32:13.223Z,20.55
2019-04-20T07:34:51.349Z,20.95
2019-04-20T07:37:55.054Z,20.85
2019-04-20T07:39:53.830Z,20.93
2019-04-20T07:42:28.465Z,20.80
2019-04-20T07:47:33.053Z,21.42
2019-04-20T07:49:50.031Z,21.25
2019-04-20T07:52:04.011Z,21.47
2019-04-20T07:55:12.429Z,21.78
2019-04-20T07:57:22.532Z,21.94
2019-04-20T07:59:52.834Z,22.59
2019-04-20T08:02:32.392Z,22.73
2019-04-20T08:04:55.314Z,22.45
2019-04-20T08:07:12.728Z,21.59
2019-04-20T08:09:50.819Z,21.69
2019-04-20T08:12:43.816Z,21.95
2019-04-20T08:15:18.144Z,21.76
2019-04-20T08:17:48.586Z,22.06
2019-04-20T08:20:05.830Z,21.80
2019-04-20T08:22:38.892Z,22.46
2019-04-20T08:24:55.339Z,23.52
2019-04-20T08:27:23.461Z,23.56
2019-04-20T08:30:09.288Z,22.53
2019-04-20T08:32:58.244Z,22.75
2019-04-20T08:35:42.319Z,23.42
2019-04-20T08:38:24.163Z,24.06
2019-04-20T08:40:37.286Z,23.59
2019-04-20T08:43:20.842Z,24.67
2019-04-20T08:45:42.045Z,24.72
2019-04-20T08:48:15.162Z,25.02
2019-04-20T08:50:41.326Z,26.36
2019-04-20T08:55:40.053Z,25.45
2019-04-20T08:57:51.738Z,25.29
2019-04-20T09:00:29.363Z,24.93
2019-04-20T09:02:55.616Z,24.51
2019-04-20T09:05:34.728Z,25.55
2019-04-20T09:08:02.515Z,25.70
2019-04-20T09:10:53.983Z,25.19
2019-04-20T09:13:05.811Z,26.04
2019-04-20T09:15:23.446Z,27.01
2019-04-20T09:18:16.926Z,27.89
2019-04-20T09:20:48.730Z,28.13
2019-04-20T09:23:30.033Z,28.25
2019-04-20T09:26:02.445Z,27.94
2019-04-20T09:28:29.826Z,27.72
2019-04-20T09:31:14.308Z,27.74
2019-04-20T09:33:47.030Z,27.95
2019-04-20T09:36:21.091Z,28.01
2019-04-20T09:39:01.169Z,28.60
2019-04-20T09:41:54.885Z,28.59
2019-04-20T09:44:02.534Z,28.32
2019-04-20T09:46:37.769Z,27.27
2019-04-20T09:49:13.053Z,28.08
2019-04-20T09:51:51.158Z,28.31
2019-04-20T09:54:24.439Z,26.59
2019-04-20T09:56:55.225Z,26.86
2019-04-20T09:59:27.014Z,28.04
2019-04-20T10:01:41.912Z,28.74
2019-04-20T10:04:03.527Z,28.05
2019-04-20T10:06:35.906Z,26.17
2019-04-20T10:09:05.004Z,25.28
2019-04-20T10:11:32.598Z,26.00
2019-04-20T10:14:02.027Z,26.20
2019-04-20T10:16:31.504Z,26.06
2019-04-20T10:19:00.746Z,24.35
2019-04-20T10:21:29.956Z,24.02
2019-04-20T10:23:58.963Z,24.81
2019-04-20T10:26:27.526Z,25.08
2019-04-20T10:28:57.379Z,24.93
2019-04-20T10:31:26.498Z,25.34
2019-04-20T10:33:55.713Z,26.31
2019-04-20T10:36:42.092Z,25.56
2019-04-20T10:39:11.014Z,25.17
2019-04-20T10:41:48.353Z,25.47
2019-04-20T10:44:11.199Z,26.26
2019-04-20T10:46:40.732Z,26.82
2019-04-20T10:49:09.687Z,25.36
2019-04-20T10:51:39.959Z,25.29
2019-04-20T10:54:08.790Z,24.62
2019-04-20T10:56:37.416Z,25.02
2019-04-20T10:59:06.017Z,24.83
2019-04-20T11:01:35.724Z,24.60
2019-04-20T11:04:04.926Z,24.09
2019-04-20T11:06:34.538Z,24.40
2019-04-20T11:09:04.686Z,24.56
2019-04-20T11:11:34.174Z,24.62
2019-04-20T11:14:08.360Z,24.18
2019-04-20T11:16:33.769Z,25.26
2019-04-20T11:19:03.275Z,26.36
2019-04-20T11:21:32.333Z,26.51
2019-04-20T11:24:00.879Z,24.97
2019-04-20T11:26:29.323Z,24.76
2019-04-20T11:28:58.042Z,25.76
2019-04-20T11:31:35.705Z,25.56
2019-04-20T11:33:56.698Z,26.51
2019-04-20T11:36:25.356Z,25.68
2019-04-20T11:38:54.403Z,25.26
2019-04-20T11:41:26.084Z,25.18
2019-04-20T11:43:53.794Z,26.58
2019-04-20T11:46:22.826Z,26.12
2019-04-20T11:48:51.821Z,26.79
2019-04-20T11:51:21.525Z,27.55
2019-04-20T11:53:50.213Z,27.95
2019-04-20T11:56:24.057Z,28.25
2019-04-20T11:58:49.169Z,28.68
2019-04-20T12:01:22.545Z,28.40
2019-04-20T12:03:58.421Z,26.00
2019-04-20T12:06:21.068Z,25.43
2019-04-20T12:08:49.796Z,25.25
2019-04-20T12:11:26.582Z,25.26
2019-04-20T12:13:48.984Z,25.09
2019-04-20T12:16:17.491Z,24.49
2019-04-20T12:18:46.437Z,24.66
2019-04-20T12:21:14.968Z,25.66
2019-04-20T12:23:44.507Z,26.03
2019-04-20T12:26:13.154Z,27.06
2019-04-20T12:28:41.685Z,27.41
2019-04-20T12:31:14.743Z,26.66
2019-04-20T12:33:40.391Z,25.46
2019-04-20T12:36:10.391Z,25.78
2019-04-20T12:38:39.173Z,26.03
2019-04-20T12:41:10.964Z,25.44
2019-04-20T12:43:38.792Z,25.50
2019-04-20T12:46:07.674Z,25.92
2019-04-20T12:48:37.636Z,26.73
2019-04-20T12:51:06.162Z,26.99
2019-04-20T12:53:34.971Z,27.40
2019-04-20T12:56:04.404Z,27.45
2019-04-20T12:58:32.982Z,27.35
2019-04-20T13:01:02.601Z,28.26
2019-04-20T13:03:31.750Z,27.49
2019-04-20T13:06:01.858Z,26.79
2019-04-20T13:08:36.647Z,27.41
2019-04-20T13:11:04.603Z,28.24
2019-04-20T13:13:34.681Z,28.61
2019-04-20T13:16:14.334Z,27.05
2019-04-20T13:18:45.452Z,27.22
2019-04-20T13:21:14.034Z,27.34
2019-04-20T13:23:42.832Z,28.19
2019-04-20T13:26:12.753Z,28.71
2019-04-20T13:28:41.465Z,28.71
2019-04-20T13:31:09.933Z,29.24
2019-04-20T13:33:39.097Z,29.05
2019-04-20T13:36:08.202Z,28.98
2019-04-20T13:38:36.713Z,29.34
2019-04-20T13:41:06.228Z,29.12
2019-04-20T13:43:35.529Z,28.90
2019-04-20T13:46:04.934Z,28.88
2019-04-20T13:48:33.431Z,28.58
2019-04-20T13:51:02.321Z,27.22
2019-04-20T13:53:30.924Z,27.22
2019-04-20T13:56:01.412Z,28.45
2019-04-20T13:58:48.211Z,27.11
2019-04-20T14:01:21.073Z,27.62
2019-04-20T14:03:51.374Z,27.21
2019-04-20T14:06:21.155Z,26.77
2019-04-20T14:08:49.786Z,26.43
2019-04-20T14:11:18.244Z,25.63
2019-04-20T14:13:53.553Z,26.79
2019-04-20T14:16:16.998Z,26.72
2019-04-20T14:18:45.452Z,27.26
2019-04-20T14:21:14.251Z,28.03
2019-04-20T14:23:43.216Z,27.09
2019-04-20T14:26:12.659Z,26.13
2019-04-20T14:28:41.205Z,26.23
2019-04-20T14:31:09.902Z,26.17
2019-04-20T14:33:39.126Z,26.13
2019-04-20T14:36:08.768Z,26.50
2019-04-20T14:38:38.325Z,26.65
2019-04-20T14:41:08.383Z,26.98
2019-04-20T14:43:38.114Z,26.47
2019-04-20T14:46:08.414Z,27.09
2019-04-20T14:48:37.027Z,26.45
2019-04-20T14:51:05.763Z,26.55
2019-04-20T14:53:35.413Z,27.40
2019-04-20T14:56:05.329Z,27.33
2019-04-20T14:58:41.440Z,26.94
2019-04-20T15:01:10.799Z,27.21
2019-04-20T15:03:40.843Z,26.91
2019-04-20T15:06:11.668Z,26.14
2019-04-20T15:08:40.791Z,26.23
2019-04-20T15:11:09.437Z,25.84
2019-04-20T15:13:40.629Z,26.53
2019-04-20T15:16:10.731Z,26.38
2019-04-20T15:18:53.580Z,26.50
2019-04-20T15:21:24.749Z,26.36
2019-04-20T15:23:53.569Z,26.27
2019-04-20T15:26:22.470Z,26.68
2019-04-20T15:28:52.419Z,26.86
2019-04-20T15:31:21.025Z,27.21
2019-04-20T15:33:50.746Z,26.79
2019-04-20T15:36:20.131Z,27.20
2019-04-20T15:38:49.387Z,27.14
2019-04-20T15:41:18.521Z,27.72
2019-04-20T15:43:47.354Z,27.74
2019-04-20T15:46:17.117Z,27.18
2019-04-20T15:48:46.160Z,27.08
2019-04-20T15:51:17.133Z,27.09
2019-04-20T15:53:47.350Z,26.66
2019-04-20T15:56:16.598Z,26.30
2019-04-20T15:58:46.150Z,25.95
2019-04-20T16:01:16.370Z,25.71
2019-04-20T16:03:47.646Z,25.32
2019-04-20T16:06:17.065Z,25.65
2019-04-20T16:08:48.221Z,25.27
2019-04-20T16:11:17.404Z,25.07
2019-04-20T16:13:49.894Z,24.99
2019-04-20T16:16:16.318Z,25.00
2019-04-20T16:18:46.568Z,24.89
2019-04-20T16:21:20.886Z,24.98
2019-04-20T16:23:54.697Z,24.96
2019-04-20T16:26:25.918Z,24.93
2019-04-20T16:28:55.494Z,24.83
2019-04-20T16:31:24.534Z,24.65
2019-04-20T16:33:55.630Z,24.70
2019-04-20T16:36:23.374Z,24.52
2019-04-20T16:38:53.173Z,24.67
2019-04-20T16:41:22.303Z,24.55
2019-04-20T16:43:51.619Z,24.43
2019-04-20T16:46:23.669Z,24.34
2019-04-20T16:48:50.597Z,24.55
2019-04-20T16:51:19.058Z,24.34
2019-04-20T16:53:47.914Z,23.69
2019-04-20T16:56:18.872Z,23.64
2019-04-20T16:58:48.309Z,23.63
2019-04-20T17:01:17.316Z,23.48
2019-04-20T17:03:55.161Z,23.61
2019-04-20T17:06:15.993Z,23.43
2019-04-20T17:08:45.789Z,23.19
2019-04-20T17:11:15.903Z,23.31
2019-04-20T17:13:49.662Z,23.21
2019-04-20T17:16:15.603Z,23.20
2019-04-20T17:18:47.885Z,23.12
2019-04-20T17:21:21.739Z,23.13
2019-04-20T17:23:47.023Z,22.80
2019-04-20T17:26:17.296Z,22.86
2019-04-20T17:29:03.917Z,22.68
2019-04-20T17:31:47.273Z,22.74
2019-04-20T17:36:46.614Z,22.28
2019-04-20T17:39:25.909Z,22.43
2019-04-20T17:42:02.956Z,22.30
2019-04-20T17:44:31.491Z,22.39
2019-04-20T17:46:58.694Z,22.35
2019-04-20T17:49:31.459Z,22.10
2019-04-20T17:52:12.245Z,22.15
2019-04-20T17:54:22.107Z,21.96
2019-04-20T17:56:52.171Z,21.91
2019-04-20T17:59:22.261Z,21.63
2019-04-20T18:02:07.778Z,21.75
2019-04-20T18:07:28.183Z,21.62
2019-04-20T18:10:01.528Z,21.64
2019-04-20T18:12:09.548Z,21.56
2019-04-20T18:14:47.966Z,21.29
2019-04-20T18:17:25.840Z,21.21
2019-04-20T18:19:57.121Z,21.24
2019-04-20T18:22:25.847Z,21.15
2019-04-20T18:25:12.178Z,21.04
2019-04-20T18:27:41.121Z,21.01
2019-04-20T18:30:11.377Z,20.90
2019-04-20T18:32:35.585Z,20.82
2019-04-20T18:35:16.389Z,20.69
2019-04-20T18:37:52.573Z,20.59
2019-04-20T18:40:26.659Z,20.58
2019-04-20T18:42:55.922Z,20.48
2019-04-20T18:45:29.586Z,20.52
2019-04-20T18:48:05.901Z,20.34
2019-04-20T18:50:26.604Z,20.36
2019-04-20T18:52:49.783Z,20.25
2019-04-20T18:55:26.368Z,20.04
2019-04-20T18:57:49.276Z,19.99
2019-04-20T19:00:26.968Z,19.94
2019-04-20T19:02:54.375Z,19.83
2019-04-20T19:05:21.961Z,19.87
2019-04-20T19:07:59.357Z,19.79
2019-04-20T19:10:27.177Z,19.72
2019-04-20T19:12:59.872Z,19.64
2019-04-20T19:15:47.543Z,19.63
2019-04-20T19:18:12.890Z,19.70
2019-04-20T19:20:34.989Z,19.47
2019-04-20T19:23:04.124Z,19.41
2019-04-20T19:25:36.960Z,19.37
2019-04-20T19:28:04.740Z,19.34
2019-04-20T19:30:41.290Z,19.31
2019-04-20T19:33:20.584Z,19.23
2019-04-20T19:35:48.542Z,19.21
2019-04-20T19:38:13.688Z,19.27
2019-04-20T19:40:47.918Z,19.19
2019-04-20T19:43:15.746Z,19.21
2019-04-20T19:46:07.384Z,19.01
2019-04-20T19:48:22.353Z,18.92
2019-04-20T19:51:00.819Z,18.89
2019-04-20T19:53:45.529Z,18.91
2019-04-20T19:55:47.762Z,18.91
2019-04-20T19:58:24.978Z,18.90
2019-04-20T20:00:53.221Z,18.84
2019-04-20T20:03:21.621Z,18.73
2019-04-20T20:05:53.792Z,18.71
2019-04-20T20:08:24.410Z,18.57
2019-04-20T20:10:52.473Z,18.60
2019-04-20T20:13:27.613Z,18.47
2019-04-20T20:15:57.435Z,18.53
2019-04-20T20:18:40.226Z,18.40
2019-04-20T20:21:09.956Z,18.36
2019-04-20T20:23:24.001Z,18.31
2019-04-20T20:25:53.207Z,18.21
2019-04-20T20:28:31.097Z,18.26
2019-04-20T20:31:05.090Z,18.12
2019-04-20T20:33:41.960Z,18.10
2019-04-20T20:36:01.966Z,18.07
2019-04-20T20:38:31.688Z,18.06
2019-04-20T20:41:05.830Z,17.99
2019-04-20T20:43:39.404Z,17.95
2019-04-20T20:46:06.488Z,17.85
2019-04-20T20:48:38.533Z,17.78
2019-04-20T20:51:12.077Z,17.75
2019-04-20T20:53:41.406Z,17.71
2019-04-20T20:56:06.601Z,17.66
2019-04-20T20:58:36.207Z,17.61
2019-04-20T21:01:04.376Z,17.54
2019-04-20T21:03:32.176Z,17.60
2019-04-20T21:05:55.683Z,17.63
2019-04-20T21:08:24.074Z,17.56
2019-04-20T21:10:52.745Z,17.63
2019-04-20T21:13:21.455Z,17.54
2019-04-20T21:15:54.108Z,17.54
2019-04-20T21:18:45.736Z,17.56
2019-04-20T21:21:10.275Z,17.54
2019-04-20T21:23:35.364Z,17.48
2019-04-20T21:26:21.729Z,17.30
2019-04-20T21:28:41.984Z,17.24
2019-04-20T21:31:15.904Z,17.38
2019-04-20T21:33:42.844Z,17.25
2019-04-20T21:36:13.540Z,17.31
2019-04-20T21:38:44.354Z,17.40
2019-04-20T21:41:16.470Z,17.38
2019-04-20T21:43:44.563Z,17.20
2019-04-20T21:46:13.884Z,17.16
2019-04-20T21:48:55.874Z,17.11
2019-04-20T21:51:24.385Z,17.07
2019-04-20T21:53:44.298Z,17.03
2019-04-20T21:56:12.873Z,16.98
2019-04-20T21:58:48.270Z,16.83
2019-04-20T22:01:22.255Z,16.81
2019-04-20T22:03:44.359Z,16.72
2019-04-20T22:06:14.081Z,16.68
2019-04-20T22:08:49.337Z,16.76
2019-04-20T22:11:13.590Z,16.76
2019-04-20T22:13:44.572Z,16.78
2019-04-20T22:16:14.629Z,16.73
2019-04-20T22:18:53.012Z,16.77
2019-04-20T22:21:22.712Z,16.83
2019-04-20T22:24:00.192Z,16.74
2019-04-20T22:26:26.833Z,16.54
2019-04-20T22:28:44.622Z,16.48
2019-04-20T22:31:14.070Z,16.57
2019-04-20T22:33:44.945Z,16.45
2019-04-20T22:36:14.559Z,16.44
2019-04-20T22:39:03.426Z,16.28
2019-04-20T22:41:34.298Z,16.31
2019-04-20T22:44:11.507Z,16.34
2019-04-20T22:46:37.592Z,16.27
2019-04-20T22:49:20.936Z,16.31
2019-04-20T22:51:50.758Z,16.28
2019-04-20T22:54:23.167Z,16.24
2019-04-20T22:56:49.979Z,16.28
2019-04-20T22:59:13.959Z,16.18
2019-04-20T23:01:45.806Z,15.98
2019-04-20T23:04:08.831Z,15.88
2019-04-20T23:06:42.426Z,15.95
2019-04-20T23:09:11.614Z,15.94
2019-04-20T23:11:40.366Z,15.94
2019-04-20T23:14:10.690Z,16.05
2019-04-20T23:16:43.940Z,15.97
2019-04-20T23:19:10.296Z,16.12
2019-04-20T23:21:40.616Z,15.71
2019-04-20T23:24:11.385Z,15.71
2019-04-20T23:26:42.548Z,15.83
2019-04-20T23:29:11.284Z,15.75
2019-04-20T23:31:46.135Z,15.67
2019-04-20T23:34:16.521Z,15.45
2019-04-20T23:36:43.845Z,15.36
2019-04-20T23:39:10.840Z,15.39
2019-04-20T23:41:43.512Z,15.48
2019-04-20T23:44:19.010Z,15.42
2019-04-20T23:46:53.467Z,15.52
2019-04-20T23:49:27.196Z,15.56
2019-04-20T23:52:09.971Z,15.38
2019-04-20T23:54:26.271Z,15.48
2019-04-20T23:56:53.586Z,15.31
2019-04-20T23:59:30.795Z,15.28
